sensor_id;sensor_type;location;lat;lon;timestamp;temperature;humidity
20856;DHT22;63058;49.424;8.420;2023-11-18T00:01:49;9.80;99.90
20856;DHT22;63058;49.424;8.420;2023-11-18T00:04:14;9.90;99.90
20856;DHT22;63058;49.424;8.420;2023-11-18T00:06:43;9.90;99.90
20856;DHT22;63058;49.424;8.420;2023-11-18T00:09:13;9.90;99.90
20856;DHT22;63058;49.424;8.420;2023-11-18T00:11:40;9.90;99.90
20856;DHT22;63058;49.424;8.420;2023-11-18T00:14:06;9.90;99.90
20856;DHT22;63058;49.424;8.420;2023-11-18T00:16:32;9.80;99.90
20856;DHT22;63058;49.424;8.420;2023-11-18T00:18:59;9.80;99.90
20856;DHT22;63058;49.424;8.420;2023-11-18T00:21:25;9.80;99.90
20856;DHT22;63058;49.424;8.420;2023-11-18T00:23:51;9.80;99.90
20856;DHT22;63058;49.424;8.420;2023-11-18T00:26:16;9.80;99.90
20856;DHT22;63058;49.424;8.420;2023-11-18T00:28:42;9.90;99.90
20856;DHT22;63058;49.424;8.420;2023-11-18T00:31:07;9.70;99.90
20856;DHT22;63058;49.424;8.420;2023-11-18T00:33:33;9.80;99.90
20856;DHT22;63058;49.424;8.420;2023-11-18T00:35:59;9.80;99.90
20856;DHT22;63058;49.424;8.420;2023-11-18T00:38:26;9.80;99.90
20856;DHT22;63058;49.424;8.420;2023-11-18T00:40:52;9.70;99.90
20856;DHT22;63058;49.424;8.420;2023-11-18T00:43:17;9.70;99.90
20856;DHT22;63058;49.424;8.420;2023-11-18T00:45:43;9.70;99.90
20856;DHT22;63058;49.424;8.420;2023-11-18T00:48:09;9.70;99.90
20856;DHT22;63058;49.424;8.420;2023-11-18T00:50:36;9.70;99.90
20856;DHT22;63058;49.424;8.420;2023-11-18T00:53:01;9.70;99.90
20856;DHT22;63058;49.424;8.420;2023-11-18T00:55:27;9.70;99.90
20856;DHT22;63058;49.424;8.420;2023-11-18T00:57:53;9.80;99.90
20856;DHT22;63058;49.424;8.420;2023-11-18T01:00:18;9.70;99.90
20856;DHT22;63058;49.424;8.420;2023-11-18T01:02:48;9.70;99.90
20856;DHT22;63058;49.424;8.420;2023-11-18T01:05:15;9.60;99.90
20856;DHT22;63058;49.424;8.420;2023-11-18T01:07:41;9.60;99.90
20856;DHT22;63058;49.424;8.420;2023-11-18T01:10:07;9.60;99.90
20856;DHT22;63058;49.424;8.420;2023-11-18T01:12:35;9.60;99.90
20856;DHT22;63058;49.424;8.420;2023-11-18T01:15:01;9.60;99.90
20856;DHT22;63058;49.424;8.420;2023-11-18T01:17:26;9.60;99.90
20856;DHT22;63058;49.424;8.420;2023-11-18T01:19:52;9.60;99.90
20856;DHT22;63058;49.424;8.420;2023-11-18T01:22:17;9.60;99.90
20856;DHT22;63058;49.424;8.420;2023-11-18T01:24:44;9.60;99.90
20856;DHT22;63058;49.424;8.420;2023-11-18T01:27:10;9.60;99.90
20856;DHT22;63058;49.424;8.420;2023-11-18T01:29:36;9.50;99.90
20856;DHT22;63058;49.424;8.420;2023-11-18T01:32:02;9.60;99.90
20856;DHT22;63058;49.424;8.420;2023-11-18T01:34:34;9.60;99.90
20856;DHT22;63058;49.424;8.420;2023-11-18T01:37:00;9.50;99.90
20856;DHT22;63058;49.424;8.420;2023-11-18T01:39:25;9.50;99.90
20856;DHT22;63058;49.424;8.420;2023-11-18T01:41:52;9.50;99.90
20856;DHT22;63058;49.424;8.420;2023-11-18T01:44:18;9.50;99.90
20856;DHT22;63058;49.424;8.420;2023-11-18T01:46:45;9.50;99.90
20856;DHT22;63058;49.424;8.420;2023-11-18T01:49:14;9.40;99.90
20856;DHT22;63058;49.424;8.420;2023-11-18T01:51:44;9.40;99.90
20856;DHT22;63058;49.424;8.420;2023-11-18T01:54:12;9.40;99.90
20856;DHT22;63058;49.424;8.420;2023-11-18T01:56:44;9.30;99.90
20856;DHT22;63058;49.424;8.420;2023-11-18T01:59:11;9.30;99.90
20856;DHT22;63058;49.424;8.420;2023-11-18T02:01:50;9.30;99.90
20856;DHT22;63058;49.424;8.420;2023-11-18T02:04:17;9.30;99.90
20856;DHT22;63058;49.424;8.420;2023-11-18T02:06:45;9.30;99.90
20856;DHT22;63058;49.424;8.420;2023-11-18T02:09:12;9.20;99.90
20856;DHT22;63058;49.424;8.420;2023-11-18T02:11:44;9.20;99.90
20856;DHT22;63058;49.424;8.420;2023-11-18T02:14:13;9.20;99.90
20856;DHT22;63058;49.424;8.420;2023-11-18T02:16:42;9.10;99.90
20856;DHT22;63058;49.424;8.420;2023-11-18T02:19:20;9.10;99.90
20856;DHT22;63058;49.424;8.420;2023-11-18T02:21:48;9.10;99.90
20856;DHT22;63058;49.424;8.420;2023-11-18T02:24:27;9.10;99.90
20856;DHT22;63058;49.424;8.420;2023-11-18T02:26:57;9.00;99.90
20856;DHT22;63058;49.424;8.420;2023-11-18T02:29:24;9.00;99.90
20856;DHT22;63058;49.424;8.420;2023-11-18T02:31:52;8.90;99.90
20856;DHT22;63058;49.424;8.420;2023-11-18T02:34:25;9.00;99.90
20856;DHT22;63058;49.424;8.420;2023-11-18T02:36:53;8.90;99.90
20856;DHT22;63058;49.424;8.420;2023-11-18T02:39:32;8.90;99.90
20856;DHT22;63058;49.424;8.420;2023-11-18T02:42:02;8.90;99.90
20856;DHT22;63058;49.424;8.420;2023-11-18T02:44:30;8.90;99.90
20856;DHT22;63058;49.424;8.420;2023-11-18T02:46:58;8.90;99.90
20856;DHT22;63058;49.424;8.420;2023-11-18T02:49:24;9.00;99.90
20856;DHT22;63058;49.424;8.420;2023-11-18T02:51:49;9.00;99.90
20856;DHT22;63058;49.424;8.420;2023-11-18T02:54:15;9.00;99.90
20856;DHT22;63058;49.424;8.420;2023-11-18T02:56:41;9.00;99.90
20856;DHT22;63058;49.424;8.420;2023-11-18T02:59:07;9.00;99.90
20856;DHT22;63058;49.424;8.420;2023-11-18T03:01:35;9.20;99.90
20856;DHT22;63058;49.424;8.420;2023-11-18T03:04:01;9.10;99.90
20856;DHT22;63058;49.424;8.420;2023-11-18T03:06:27;9.00;99.90
20856;DHT22;63058;49.424;8.420;2023-11-18T03:08:53;9.00;99.90
20856;DHT22;63058;49.424;8.420;2023-11-18T03:11:19;9.00;99.90
20856;DHT22;63058;49.424;8.420;2023-11-18T03:13:45;9.10;99.90
20856;DHT22;63058;49.424;8.420;2023-11-18T03:16:13;9.00;99.90
20856;DHT22;63058;49.424;8.420;2023-11-18T03:18:40;9.10;99.90
20856;DHT22;63058;49.424;8.420;2023-11-18T03:21:12;9.10;99.90
20856;DHT22;63058;49.424;8.420;2023-11-18T03:23:38;9.20;99.90
20856;DHT22;63058;49.424;8.420;2023-11-18T03:26:06;9.10;99.90
20856;DHT22;63058;49.424;8.420;2023-11-18T03:28:32;9.20;99.90
20856;DHT22;63058;49.424;8.420;2023-11-18T03:30:57;9.20;99.90
20856;DHT22;63058;49.424;8.420;2023-11-18T03:33:23;9.30;99.90
20856;DHT22;63058;49.424;8.420;2023-11-18T03:35:49;9.30;99.90
20856;DHT22;63058;49.424;8.420;2023-11-18T03:38:14;9.40;99.90
20856;DHT22;63058;49.424;8.420;2023-11-18T03:40:42;9.40;99.90
20856;DHT22;63058;49.424;8.420;2023-11-18T03:43:10;9.40;99.90
20856;DHT22;63058;49.424;8.420;2023-11-18T03:45:38;9.50;99.90
20856;DHT22;63058;49.424;8.420;2023-11-18T03:48:04;9.50;99.90
20856;DHT22;63058;49.424;8.420;2023-11-18T03:50:30;9.60;99.90
20856;DHT22;63058;49.424;8.420;2023-11-18T03:52:55;9.60;99.90
20856;DHT22;63058;49.424;8.420;2023-11-18T03:55:21;9.60;99.90
20856;DHT22;63058;49.424;8.420;2023-11-18T03:57:47;9.60;99.90
20856;DHT22;63058;49.424;8.420;2023-11-18T04:00:15;9.60;99.90
20856;DHT22;63058;49.424;8.420;2023-11-18T04:02:41;9.60;99.90
20856;DHT22;63058;49.424;8.420;2023-11-18T04:05:07;9.60;99.90
20856;DHT22;63058;49.424;8.420;2023-11-18T04:07:33;9.60;99.90
20856;DHT22;63058;49.424;8.420;2023-11-18T04:09:59;9.50;99.90
20856;DHT22;63058;49.424;8.420;2023-11-18T04:12:25;9.60;99.90
20856;DHT22;63058;49.424;8.420;2023-11-18T04:14:52;9.50;99.90
20856;DHT22;63058;49.424;8.420;2023-11-18T04:17:18;9.50;99.90
20856;DHT22;63058;49.424;8.420;2023-11-18T04:19:44;9.50;99.90
20856;DHT22;63058;49.424;8.420;2023-11-18T04:22:10;9.40;99.90
20856;DHT22;63058;49.424;8.420;2023-11-18T04:24:36;9.50;99.90
20856;DHT22;63058;49.424;8.420;2023-11-18T04:27:03;9.40;99.90
20856;DHT22;63058;49.424;8.420;2023-11-18T04:29:28;9.40;99.90
20856;DHT22;63058;49.424;8.420;2023-11-18T04:31:54;9.40;99.90
20856;DHT22;63058;49.424;8.420;2023-11-18T04:34:20;9.40;99.90
20856;DHT22;63058;49.424;8.420;2023-11-18T04:36:45;9.40;99.90
20856;DHT22;63058;49.424;8.420;2023-11-18T04:39:11;9.30;99.90
20856;DHT22;63058;49.424;8.420;2023-11-18T04:41:37;9.30;99.90
20856;DHT22;63058;49.424;8.420;2023-11-18T04:44:03;9.30;99.90
20856;DHT22;63058;49.424;8.420;2023-11-18T04:46:29;9.20;99.90
20856;DHT22;63058;49.424;8.420;2023-11-18T04:48:54;9.30;99.90
20856;DHT22;63058;49.424;8.420;2023-11-18T04:51:21;9.20;99.90
20856;DHT22;63058;49.424;8.420;2023-11-18T04:53:48;9.10;99.90
20856;DHT22;63058;49.424;8.420;2023-11-18T04:56:14;9.00;99.90
20856;DHT22;63058;49.424;8.420;2023-11-18T04:58:42;9.00;99.90
20856;DHT22;63058;49.424;8.420;2023-11-18T05:01:08;8.90;99.90
20856;DHT22;63058;49.424;8.420;2023-11-18T05:03:34;8.90;99.90
20856;DHT22;63058;49.424;8.420;2023-11-18T05:06:00;8.90;99.90
20856;DHT22;63058;49.424;8.420;2023-11-18T05:08:25;8.90;99.90
20856;DHT22;63058;49.424;8.420;2023-11-18T05:10:51;8.90;99.90
20856;DHT22;63058;49.424;8.420;2023-11-18T05:13:17;9.00;99.90
20856;DHT22;63058;49.424;8.420;2023-11-18T05:15:44;8.90;99.90
20856;DHT22;63058;49.424;8.420;2023-11-18T05:18:13;8.90;99.90
20856;DHT22;63058;49.424;8.420;2023-11-18T05:20:40;8.90;99.90
20856;DHT22;63058;49.424;8.420;2023-11-18T05:23:07;8.90;99.90
20856;DHT22;63058;49.424;8.420;2023-11-18T05:25:36;8.90;99.90
20856;DHT22;63058;49.424;8.420;2023-11-18T05:28:02;8.90;99.90
20856;DHT22;63058;49.424;8.420;2023-11-18T05:30:28;8.90;99.90
20856;DHT22;63058;49.424;8.420;2023-11-18T05:32:56;8.90;99.90
20856;DHT22;63058;49.424;8.420;2023-11-18T05:35:23;8.80;99.90
20856;DHT22;63058;49.424;8.420;2023-11-18T05:37:54;8.80;99.90
20856;DHT22;63058;49.424;8.420;2023-11-18T05:40:19;8.80;99.90
20856;DHT22;63058;49.424;8.420;2023-11-18T05:42:45;8.80;99.90
20856;DHT22;63058;49.424;8.420;2023-11-18T05:45:13;8.70;99.90
20856;DHT22;63058;49.424;8.420;2023-11-18T05:47:56;8.70;99.90
20856;DHT22;63058;49.424;8.420;2023-11-18T05:50:22;8.70;99.90
20856;DHT22;63058;49.424;8.420;2023-11-18T05:52:50;8.70;99.90
20856;DHT22;63058;49.424;8.420;2023-11-18T05:55:16;8.70;99.90
20856;DHT22;63058;49.424;8.420;2023-11-18T05:57:41;8.80;99.90
20856;DHT22;63058;49.424;8.420;2023-11-18T06:00:14;8.80;99.90
20856;DHT22;63058;49.424;8.420;2023-11-18T06:02:44;8.80;99.90
20856;DHT22;63058;49.424;8.420;2023-11-18T06:05:10;8.80;99.90
20856;DHT22;63058;49.424;8.420;2023-11-18T06:07:38;8.80;99.90
20856;DHT22;63058;49.424;8.420;2023-11-18T06:10:06;8.80;99.90
20856;DHT22;63058;49.424;8.420;2023-11-18T06:12:32;8.70;99.90
20856;DHT22;63058;49.424;8.420;2023-11-18T06:14:58;8.70;99.90
20856;DHT22;63058;49.424;8.420;2023-11-18T06:17:24;8.70;99.90
20856;DHT22;63058;49.424;8.420;2023-11-18T06:19:50;8.70;99.90
20856;DHT22;63058;49.424;8.420;2023-11-18T06:22:15;8.70;99.90
20856;DHT22;63058;49.424;8.420;2023-11-18T06:24:41;8.70;99.90
20856;DHT22;63058;49.424;8.420;2023-11-18T06:27:07;8.70;99.90
20856;DHT22;63058;49.424;8.420;2023-11-18T06:29:34;8.60;99.90
20856;DHT22;63058;49.424;8.420;2023-11-18T06:32:00;8.70;99.90
20856;DHT22;63058;49.424;8.420;2023-11-18T06:34:25;8.70;99.90
20856;DHT22;63058;49.424;8.420;2023-11-18T06:36:52;8.70;99.90
20856;DHT22;63058;49.424;8.420;2023-11-18T06:39:18;8.70;99.90
20856;DHT22;63058;49.424;8.420;2023-11-18T06:41:45;8.80;99.90
20856;DHT22;63058;49.424;8.420;2023-11-18T06:44:16;8.80;99.90
20856;DHT22;63058;49.424;8.420;2023-11-18T06:46:43;8.90;99.90
20856;DHT22;63058;49.424;8.420;2023-11-18T06:49:10;8.90;99.90
20856;DHT22;63058;49.424;8.420;2023-11-18T06:51:41;8.90;99.90
20856;DHT22;63058;49.424;8.420;2023-11-18T06:54:07;9.00;99.90
20856;DHT22;63058;49.424;8.420;2023-11-18T06:56:39;9.00;99.90
20856;DHT22;63058;49.424;8.420;2023-11-18T06:59:09;9.00;99.90
20856;DHT22;63058;49.424;8.420;2023-11-18T07:01:41;9.00;99.90
20856;DHT22;63058;49.424;8.420;2023-11-18T07:04:10;9.10;99.90
20856;DHT22;63058;49.424;8.420;2023-11-18T07:06:35;9.10;99.90
20856;DHT22;63058;49.424;8.420;2023-11-18T07:09:04;9.20;99.90
20856;DHT22;63058;49.424;8.420;2023-11-18T07:11:37;9.20;99.90
20856;DHT22;63058;49.424;8.420;2023-11-18T07:14:03;9.20;99.90
20856;DHT22;63058;49.424;8.420;2023-11-18T07:16:29;9.30;99.90
20856;DHT22;63058;49.424;8.420;2023-11-18T07:18:54;9.30;99.90
20856;DHT22;63058;49.424;8.420;2023-11-18T07:21:20;9.40;99.90
20856;DHT22;63058;49.424;8.420;2023-11-18T07:23:45;9.40;99.90
20856;DHT22;63058;49.424;8.420;2023-11-18T07:26:11;9.50;99.90
20856;DHT22;63058;49.424;8.420;2023-11-18T07:28:39;9.50;99.90
20856;DHT22;63058;49.424;8.420;2023-11-18T07:31:05;9.50;99.90
20856;DHT22;63058;49.424;8.420;2023-11-18T07:33:31;9.60;99.90
20856;DHT22;63058;49.424;8.420;2023-11-18T07:35:58;9.60;99.90
20856;DHT22;63058;49.424;8.420;2023-11-18T07:38:24;9.70;99.90
20856;DHT22;63058;49.424;8.420;2023-11-18T07:40:49;9.70;99.90
20856;DHT22;63058;49.424;8.420;2023-11-18T07:43:18;9.70;99.90
20856;DHT22;63058;49.424;8.420;2023-11-18T07:45:47;9.70;99.90
20856;DHT22;63058;49.424;8.420;2023-11-18T07:48:15;9.80;99.90
20856;DHT22;63058;49.424;8.420;2023-11-18T07:50:42;9.80;99.90
20856;DHT22;63058;49.424;8.420;2023-11-18T07:53:09;9.70;99.90
20856;DHT22;63058;49.424;8.420;2023-11-18T07:55:35;9.80;99.90
20856;DHT22;63058;49.424;8.420;2023-11-18T07:58:10;9.90;99.90
20856;DHT22;63058;49.424;8.420;2023-11-18T08:00:40;9.80;99.90
20856;DHT22;63058;49.424;8.420;2023-11-18T08:03:06;9.90;99.90
20856;DHT22;63058;49.424;8.420;2023-11-18T08:05:36;9.90;99.90
20856;DHT22;63058;49.424;8.420;2023-11-18T08:08:02;9.90;99.90
20856;DHT22;63058;49.424;8.420;2023-11-18T08:10:29;10.00;99.90
20856;DHT22;63058;49.424;8.420;2023-11-18T08:12:58;10.00;99.90
20856;DHT22;63058;49.424;8.420;2023-11-18T08:15:24;10.00;99.90
20856;DHT22;63058;49.424;8.420;2023-11-18T08:17:53;10.00;99.90
20856;DHT22;63058;49.424;8.420;2023-11-18T08:20:19;10.10;99.90
20856;DHT22;63058;49.424;8.420;2023-11-18T08:22:50;10.10;99.90
20856;DHT22;63058;49.424;8.420;2023-11-18T08:25:15;10.10;99.90
20856;DHT22;63058;49.424;8.420;2023-11-18T08:27:43;10.20;99.90
20856;DHT22;63058;49.424;8.420;2023-11-18T08:30:11;10.20;99.90
20856;DHT22;63058;49.424;8.420;2023-11-18T08:32:39;10.20;99.90
20856;DHT22;63058;49.424;8.420;2023-11-18T08:35:08;10.30;99.90
20856;DHT22;63058;49.424;8.420;2023-11-18T08:37:37;10.40;99.90
20856;DHT22;63058;49.424;8.420;2023-11-18T08:40:04;10.40;99.90
20856;DHT22;63058;49.424;8.420;2023-11-18T08:42:32;10.50;99.90
20856;DHT22;63058;49.424;8.420;2023-11-18T08:44:59;10.60;99.90
20856;DHT22;63058;49.424;8.420;2023-11-18T08:47:27;10.60;99.90
20856;DHT22;63058;49.424;8.420;2023-11-18T08:49:52;10.70;99.90
20856;DHT22;63058;49.424;8.420;2023-11-18T08:52:20;10.70;99.90
20856;DHT22;63058;49.424;8.420;2023-11-18T08:54:45;10.80;99.90
20856;DHT22;63058;49.424;8.420;2023-11-18T08:57:29;10.90;99.90
20856;DHT22;63058;49.424;8.420;2023-11-18T09:07:35;11.00;99.90
20856;DHT22;63058;49.424;8.420;2023-11-18T09:14:02;11.10;99.90
20856;DHT22;63058;49.424;8.420;2023-11-18T09:16:32;11.00;99.90
20856;DHT22;63058;49.424;8.420;2023-11-18T09:19:03;11.10;99.90
20856;DHT22;63058;49.424;8.420;2023-11-18T09:21:31;11.10;99.90
20856;DHT22;63058;49.424;8.420;2023-11-18T09:24:02;11.10;99.90
20856;DHT22;63058;49.424;8.420;2023-11-18T09:26:33;11.20;99.90
20856;DHT22;63058;49.424;8.420;2023-11-18T09:29:00;11.30;99.90
20856;DHT22;63058;49.424;8.420;2023-11-18T09:31:26;11.30;99.90
20856;DHT22;63058;49.424;8.420;2023-11-18T09:33:52;11.40;99.90
20856;DHT22;63058;49.424;8.420;2023-11-18T09:36:19;11.50;99.90
20856;DHT22;63058;49.424;8.420;2023-11-18T09:38:46;11.50;99.90
20856;DHT22;63058;49.424;8.420;2023-11-18T09:41:19;11.50;99.90
20856;DHT22;63058;49.424;8.420;2023-11-18T09:43:49;11.60;99.90
20856;DHT22;63058;49.424;8.420;2023-11-18T09:46:25;11.60;99.90
20856;DHT22;63058;49.424;8.420;2023-11-18T09:49:17;11.50;99.90
20856;DHT22;63058;49.424;8.420;2023-11-18T09:51:51;11.60;99.90
20856;DHT22;63058;49.424;8.420;2023-11-18T09:54:27;11.60;99.90
20856;DHT22;63058;49.424;8.420;2023-11-18T09:57:08;11.60;99.90
20856;DHT22;63058;49.424;8.420;2023-11-18T10:02:10;11.60;99.90
20856;DHT22;63058;49.424;8.420;2023-11-18T10:04:37;11.70;99.90
20856;DHT22;63058;49.424;8.420;2023-11-18T10:07:05;11.50;99.90
20856;DHT22;63058;49.424;8.420;2023-11-18T10:09:33;11.50;99.90
20856;DHT22;63058;49.424;8.420;2023-11-18T10:12:08;11.50;99.90
20856;DHT22;63058;49.424;8.420;2023-11-18T10:14:42;11.50;99.90
20856;DHT22;63058;49.424;8.420;2023-11-18T10:17:11;11.50;99.90
20856;DHT22;63058;49.424;8.420;2023-11-18T10:19:55;11.50;99.90
20856;DHT22;63058;49.424;8.420;2023-11-18T10:22:27;11.50;99.90
20856;DHT22;63058;49.424;8.420;2023-11-18T10:24:55;11.50;99.90
20856;DHT22;63058;49.424;8.420;2023-11-18T10:27:24;11.50;99.90
20856;DHT22;63058;49.424;8.420;2023-11-18T10:29:54;11.60;99.90
20856;DHT22;63058;49.424;8.420;2023-11-18T10:32:21;11.50;99.90
20856;DHT22;63058;49.424;8.420;2023-11-18T10:34:48;11.50;99.90
20856;DHT22;63058;49.424;8.420;2023-11-18T10:37:15;11.50;99.90
20856;DHT22;63058;49.424;8.420;2023-11-18T10:39:46;11.50;99.90
20856;DHT22;63058;49.424;8.420;2023-11-18T10:42:13;11.60;99.90
20856;DHT22;63058;49.424;8.420;2023-11-18T10:44:54;11.60;99.90
20856;DHT22;63058;49.424;8.420;2023-11-18T10:47:25;11.60;99.90
20856;DHT22;63058;49.424;8.420;2023-11-18T10:49:55;11.60;99.90
20856;DHT22;63058;49.424;8.420;2023-11-18T10:52:24;11.60;99.90
20856;DHT22;63058;49.424;8.420;2023-11-18T10:54:52;11.60;99.90
20856;DHT22;63058;49.424;8.420;2023-11-18T10:57:22;11.70;99.90
20856;DHT22;63058;49.424;8.420;2023-11-18T11:00:01;11.70;99.90
20856;DHT22;63058;49.424;8.420;2023-11-18T11:02:31;11.70;99.90
20856;DHT22;63058;49.424;8.420;2023-11-18T11:05:03;11.70;99.90
20856;DHT22;63058;49.424;8.420;2023-11-18T11:07:30;11.80;99.90
20856;DHT22;63058;49.424;8.420;2023-11-18T11:10:02;11.80;99.90
20856;DHT22;63058;49.424;8.420;2023-11-18T11:12:33;11.80;99.90
20856;DHT22;63058;49.424;8.420;2023-11-18T11:15:12;11.80;99.90
20856;DHT22;63058;49.424;8.420;2023-11-18T11:17:52;11.80;99.90
20856;DHT22;63058;49.424;8.420;2023-11-18T11:20:22;11.80;99.90
20856;DHT22;63058;49.424;8.420;2023-11-18T11:23:14;11.80;99.90
20856;DHT22;63058;49.424;8.420;2023-11-18T11:28:31;11.90;99.90
20856;DHT22;63058;49.424;8.420;2023-11-18T11:33:57;11.90;99.90
20856;DHT22;63058;49.424;8.420;2023-11-18T11:36:33;11.90;99.90
20856;DHT22;63058;49.424;8.420;2023-11-18T11:39:01;12.00;99.90
20856;DHT22;63058;49.424;8.420;2023-11-18T11:41:29;11.90;99.90
20856;DHT22;63058;49.424;8.420;2023-11-18T11:43:59;12.00;99.90
20856;DHT22;63058;49.424;8.420;2023-11-18T11:46:27;12.00;99.90
20856;DHT22;63058;49.424;8.420;2023-11-18T11:49:01;12.00;99.90
20856;DHT22;63058;49.424;8.420;2023-11-18T11:51:48;11.90;99.90
20856;DHT22;63058;49.424;8.420;2023-11-18T11:54:23;11.90;99.90
20856;DHT22;63058;49.424;8.420;2023-11-18T11:56:56;11.90;99.90
20856;DHT22;63058;49.424;8.420;2023-11-18T12:02:21;11.90;99.90
20856;DHT22;63058;49.424;8.420;2023-11-18T12:04:51;11.90;99.90
20856;DHT22;63058;49.424;8.420;2023-11-18T12:07:23;11.90;99.90
20856;DHT22;63058;49.424;8.420;2023-11-18T12:09:57;11.90;99.90
20856;DHT22;63058;49.424;8.420;2023-11-18T12:12:26;11.90;99.90
20856;DHT22;63058;49.424;8.420;2023-11-18T12:17:22;11.80;99.90
20856;DHT22;63058;49.424;8.420;2023-11-18T12:19:50;11.80;99.90
20856;DHT22;63058;49.424;8.420;2023-11-18T12:22:23;11.80;99.90
20856;DHT22;63058;49.424;8.420;2023-11-18T12:35:22;11.70;99.90
20856;DHT22;63058;49.424;8.420;2023-11-18T12:40:57;11.60;99.90
20856;DHT22;63058;49.424;8.420;2023-11-18T12:43:46;11.60;99.90
20856;DHT22;63058;49.424;8.420;2023-11-18T12:49:03;11.60;99.90
20856;DHT22;63058;49.424;8.420;2023-11-18T12:51:31;11.60;99.90
20856;DHT22;63058;49.424;8.420;2023-11-18T12:54:01;11.50;99.90
20856;DHT22;63058;49.424;8.420;2023-11-18T12:56:28;11.60;99.90
20856;DHT22;63058;49.424;8.420;2023-11-18T12:58:55;11.50;99.90
20856;DHT22;63058;49.424;8.420;2023-11-18T13:01:22;11.60;99.90
20856;DHT22;63058;49.424;8.420;2023-11-18T13:03:47;11.60;99.90
20856;DHT22;63058;49.424;8.420;2023-11-18T13:06:13;11.60;99.90
20856;DHT22;63058;49.424;8.420;2023-11-18T13:08:40;11.70;99.90
20856;DHT22;63058;49.424;8.420;2023-11-18T13:11:06;11.70;99.90
20856;DHT22;63058;49.424;8.420;2023-11-18T13:13:38;11.70;99.90
20856;DHT22;63058;49.424;8.420;2023-11-18T13:16:06;11.70;99.90
20856;DHT22;63058;49.424;8.420;2023-11-18T13:18:44;11.70;99.90
20856;DHT22;63058;49.424;8.420;2023-11-18T13:21:16;11.70;99.90
20856;DHT22;63058;49.424;8.420;2023-11-18T13:23:46;11.70;99.90
20856;DHT22;63058;49.424;8.420;2023-11-18T13:26:16;11.70;99.90
20856;DHT22;63058;49.424;8.420;2023-11-18T13:28:42;11.80;99.90
20856;DHT22;63058;49.424;8.420;2023-11-18T13:31:09;11.80;99.90
20856;DHT22;63058;49.424;8.420;2023-11-18T13:33:41;11.80;99.90
20856;DHT22;63058;49.424;8.420;2023-11-18T13:36:08;11.80;99.90
20856;DHT22;63058;49.424;8.420;2023-11-18T13:38:37;11.80;99.90
20856;DHT22;63058;49.424;8.420;2023-11-18T13:41:03;11.80;99.90
20856;DHT22;63058;49.424;8.420;2023-11-18T13:43:41;11.80;99.90
20856;DHT22;63058;49.424;8.420;2023-11-18T13:46:13;11.80;99.90
20856;DHT22;63058;49.424;8.420;2023-11-18T13:48:39;11.80;99.90
20856;DHT22;63058;49.424;8.420;2023-11-18T13:51:12;11.90;99.90
20856;DHT22;63058;49.424;8.420;2023-11-18T13:53:39;11.90;99.90
20856;DHT22;63058;49.424;8.420;2023-11-18T13:56:10;11.90;99.90
20856;DHT22;63058;49.424;8.420;2023-11-18T13:58:36;11.90;99.90
20856;DHT22;63058;49.424;8.420;2023-11-18T14:01:09;11.90;99.90
20856;DHT22;63058;49.424;8.420;2023-11-18T14:03:37;11.90;99.90
20856;DHT22;63058;49.424;8.420;2023-11-18T14:06:06;11.90;99.90
20856;DHT22;63058;49.424;8.420;2023-11-18T14:08:32;11.90;99.90
20856;DHT22;63058;49.424;8.420;2023-11-18T14:10:59;11.90;99.90
20856;DHT22;63058;49.424;8.420;2023-11-18T14:13:25;11.90;99.90
20856;DHT22;63058;49.424;8.420;2023-11-18T14:15:58;11.90;99.90
20856;DHT22;63058;49.424;8.420;2023-11-18T14:18:25;11.90;99.90
20856;DHT22;63058;49.424;8.420;2023-11-18T14:20:51;11.90;99.90
20856;DHT22;63058;49.424;8.420;2023-11-18T14:23:17;11.80;99.90
20856;DHT22;63058;49.424;8.420;2023-11-18T14:25:44;11.80;99.90
20856;DHT22;63058;49.424;8.420;2023-11-18T14:28:09;11.80;99.90
20856;DHT22;63058;49.424;8.420;2023-11-18T14:30:35;11.80;99.90
20856;DHT22;63058;49.424;8.420;2023-11-18T14:33:01;11.80;99.90
20856;DHT22;63058;49.424;8.420;2023-11-18T14:35:26;11.80;99.90
20856;DHT22;63058;49.424;8.420;2023-11-18T14:37:52;11.80;99.90
20856;DHT22;63058;49.424;8.420;2023-11-18T14:40:18;11.80;99.90
20856;DHT22;63058;49.424;8.420;2023-11-18T14:42:46;11.70;99.90
20856;DHT22;63058;49.424;8.420;2023-11-18T14:45:13;11.70;99.90
20856;DHT22;63058;49.424;8.420;2023-11-18T14:47:39;11.70;99.90
20856;DHT22;63058;49.424;8.420;2023-11-18T14:50:05;11.70;99.90
20856;DHT22;63058;49.424;8.420;2023-11-18T14:52:44;11.60;99.90
20856;DHT22;63058;49.424;8.420;2023-11-18T14:55:11;11.60;99.90
20856;DHT22;63058;49.424;8.420;2023-11-18T14:57:41;11.60;99.90
20856;DHT22;63058;49.424;8.420;2023-11-18T15:00:07;11.60;99.90
20856;DHT22;63058;49.424;8.420;2023-11-18T15:02:33;11.60;99.90
20856;DHT22;63058;49.424;8.420;2023-11-18T15:05:00;11.60;99.90
20856;DHT22;63058;49.424;8.420;2023-11-18T15:07:27;11.60;99.90
20856;DHT22;63058;49.424;8.420;2023-11-18T15:09:53;11.60;99.90
20856;DHT22;63058;49.424;8.420;2023-11-18T15:12:18;11.60;99.90
20856;DHT22;63058;49.424;8.420;2023-11-18T15:14:45;11.60;99.90
20856;DHT22;63058;49.424;8.420;2023-11-18T15:17:11;11.60;99.90
20856;DHT22;63058;49.424;8.420;2023-11-18T15:19:39;11.50;99.90
20856;DHT22;63058;49.424;8.420;2023-11-18T15:22:04;11.60;99.90
20856;DHT22;63058;49.424;8.420;2023-11-18T15:24:30;11.50;99.90
20856;DHT22;63058;49.424;8.420;2023-11-18T15:26:57;11.50;99.90
20856;DHT22;63058;49.424;8.420;2023-11-18T15:29:25;11.50;99.90
20856;DHT22;63058;49.424;8.420;2023-11-18T15:31:58;11.50;99.90
20856;DHT22;63058;49.424;8.420;2023-11-18T15:34:24;11.50;99.90
20856;DHT22;63058;49.424;8.420;2023-11-18T15:36:50;11.50;99.90
20856;DHT22;63058;49.424;8.420;2023-11-18T15:39:17;11.50;99.90
20856;DHT22;63058;49.424;8.420;2023-11-18T15:41:42;11.50;99.90
20856;DHT22;63058;49.424;8.420;2023-11-18T15:44:08;11.50;99.90
20856;DHT22;63058;49.424;8.420;2023-11-18T15:46:37;11.50;99.90
20856;DHT22;63058;49.424;8.420;2023-11-18T15:49:03;11.40;99.90
20856;DHT22;63058;49.424;8.420;2023-11-18T15:51:28;11.50;99.90
20856;DHT22;63058;49.424;8.420;2023-11-18T15:53:56;11.40;99.90
20856;DHT22;63058;49.424;8.420;2023-11-18T15:56:21;11.50;99.90
20856;DHT22;63058;49.424;8.420;2023-11-18T15:58:48;11.40;99.90
20856;DHT22;63058;49.424;8.420;2023-11-18T16:01:14;11.50;99.90
20856;DHT22;63058;49.424;8.420;2023-11-18T16:03:39;11.50;99.90
20856;DHT22;63058;49.424;8.420;2023-11-18T16:06:05;11.40;99.90
20856;DHT22;63058;49.424;8.420;2023-11-18T16:08:31;11.40;99.90
20856;DHT22;63058;49.424;8.420;2023-11-18T16:10:56;11.50;99.90
20856;DHT22;63058;49.424;8.420;2023-11-18T16:13:22;11.50;99.90
20856;DHT22;63058;49.424;8.420;2023-11-18T16:15:48;11.50;99.90
20856;DHT22;63058;49.424;8.420;2023-11-18T16:18:13;11.50;99.90
20856;DHT22;63058;49.424;8.420;2023-11-18T16:20:39;11.50;99.90
20856;DHT22;63058;49.424;8.420;2023-11-18T16:23:05;11.50;99.90
20856;DHT22;63058;49.424;8.420;2023-11-18T16:25:31;11.40;99.90
20856;DHT22;63058;49.424;8.420;2023-11-18T16:27:59;11.40;99.90